Briefing drone pour Bourg-de-peage

Rechercher une autre localisation

Conditions de vol :


Nous sommes le : Vendredi 25 juin 2021
Il est 00:35 UTC (02:35 LT)

Lever de soleil : 03:28 UTC (05:28 LT)
Coucher de soleil : 19:56 UTC (21:56 LT)

Météo

L'essentiel des conditions de vol

VIGILANCE MÉTÉO FRANCE - Drôme (26)
Vigilance Jaune : Orages
CARTE TEMSI
CARTES DES FRONTS
METAR de LFLU
LFLU 241800Z AUTO 02007KT 9999 FEW066 SCT240 21/15 Q1020

Date d'émission: 24/06/2021
Heure d'émission: 18:00 UTC
Vent: 020° pour 7 KT (13 km/h)
Visibilité horizontale: > 10 km
Plafond :
- Peu de nuages à 6600ft (2012m)
- Nuages épars à 24000ft (7315m)
Température: 21 °C
Point de rosée: 15 °C
Humidité: 69%
Pression (QNH): 1020 hPa
Prévision 24h pour Valence (10 km)
Vent : 9° pour 2 KT (6 km/h)
Temperature Maxi: 15 °C
Temperature Min: 15 °C
Humidité : 83%
Condition : Ciel dégagé



Warning: count(): Parameter must be an array or an object that implements Countable in /homepages/6/d509196549/htdocs/droneoxygene/briefing.php on line 743
WEBCAM POUR BOURG-DE-PEAGE

Réglementation

Voler en sécurité

CARTES AERONAUTIQUE 1/500.000
CARTES VAC (LFLU)
SUP AIP




Chargement des AIP...
NOTAM (BOURG-DE-PEAGE + Terrain à proximité / FIR )




Chargement des NOTAMS...
CONTACT PREFECTURE 26
Drôme (26) : ddt-satem@drome.gouv.fr


Avertissement : Les données mises à disposition sont indicatives. Oxygène Drone ne pourra être tenu responsable de dégâts causés aux biens et aux personnes.